Watertown, Ohio
Current Conditions -  °F | °C
As of 4:32 AM on Thursday 27 Nov 2014 (Local Time) from KPKB Reporting Station
Haze Haze  
Wind Chill: 34°   Ceiling: 200
Heat Index: 34°   Visibility: 1.7mi
Dew Point: 32°   Wind: 0mph
Humidity: 92%   Direction: NA
Pressure: 30.04"   Gusts: NA
Location:  39.47°N, 81.63°W
Report Text: KPKB 270932Z AUTO 00000KT 1 3/4SM BR BKN002 OVC013 01/00 A3004 RMK AO2 T00110000
Loading
Personal Weather Stations






























Interactive Weather Map New forecast layout! Learn more

10-Day Weather Forecast

Advertisements
Track Severe Weather on mobile